Aviation Digital Data Service (ADDS)

Output produced by METARs form (1247 UTC 31 October 2014)
found at http://aviationweather.gov/adds/metars/
 
KAND 311121Z 3112/0112 00000KT P6SM SCT120 
     FM311400 10004KT P6SM SCT060 BKN120 
     FM312200 26008KT P6SM SCT050 BKN070 
     FM010200 29012KT P6SM VCSH BKN060 
     FM010400 33010KT P6SM -RA BKN040